createdAt,value
2022-08-28T00:02:35.090Z,101976.19
2022-08-28T00:05:39.450Z,102021.78
2022-08-28T00:08:42.135Z,101952.94
2022-08-28T00:11:44.783Z,101991.50
2022-08-28T00:14:47.469Z,101982.13
2022-08-28T00:17:51.565Z,101940.72
2022-08-28T00:20:54.381Z,102001.34
2022-08-28T00:23:57.052Z,102038.44
2022-08-28T00:27:18.475Z,101954.84
2022-08-28T00:30:22.901Z,102029.91
2022-08-28T00:33:28.256Z,102021.66
2022-08-28T00:36:31.048Z,102035.09
2022-08-28T00:39:33.793Z,102034.75
2022-08-28T00:42:36.736Z,102046.19
2022-08-28T00:45:40.199Z,102012.03
2022-08-28T00:48:44.466Z,102010.56
2022-08-28T00:52:04.908Z,102043.66
2022-08-28T00:55:09.311Z,102022.22
2022-08-28T00:58:12.316Z,101992.41
2022-08-28T01:01:15.545Z,101997.47
2022-08-28T01:04:20.340Z,101999.06
2022-08-28T01:07:23.327Z,102011.50
2022-08-28T01:10:26.994Z,102028.34
2022-08-28T01:13:30.007Z,102036.41
2022-08-28T01:16:33.750Z,102038.75
2022-08-28T01:19:40.055Z,101951.47
2022-08-28T01:22:45.882Z,102033.94
2022-08-28T01:25:49.990Z,102021.25
2022-08-28T01:28:53.061Z,102035.84
2022-08-28T01:31:55.769Z,102035.72
2022-08-28T01:34:58.619Z,102018.03
2022-08-28T01:38:01.316Z,102034.25
2022-08-28T01:41:05.458Z,101986.84
2022-08-28T01:44:08.139Z,101998.78
2022-08-28T01:47:10.813Z,102034.59
2022-08-28T01:50:15.146Z,102039.63
2022-08-28T01:53:20.163Z,102025.28
2022-08-28T01:56:29.817Z,102038.94
2022-08-28T01:59:33.253Z,102027.28
2022-08-28T02:02:35.903Z,102037.09
2022-08-28T02:05:38.695Z,102035.31
2022-08-28T02:08:41.341Z,102031.72
2022-08-28T02:11:46.470Z,101993.47
2022-08-28T02:14:49.584Z,102043.88
2022-08-28T02:17:52.443Z,102060.47
2022-08-28T02:20:55.205Z,102050.75
2022-08-28T02:23:58.007Z,101990.63
2022-08-28T02:27:02.539Z,102007.66
2022-08-28T02:30:05.535Z,102018.44
2022-08-28T02:33:08.316Z,102032.53
2022-08-28T02:36:11.558Z,102019.84
2022-08-28T02:39:14.627Z,102016.06
2022-08-28T02:42:19.030Z,102048.19
2022-08-28T02:45:22.227Z,102051.09
2022-08-28T02:48:25.064Z,102024.47
2022-08-28T02:51:27.778Z,102000.09
2022-08-28T02:54:31.055Z,102038.72
2022-08-28T02:57:35.328Z,102030.09
2022-08-28T03:00:37.992Z,102052.06
2022-08-28T03:03:41.521Z,102018.44
2022-08-28T03:06:44.437Z,102068.38
2022-08-28T03:09:47.095Z,102068.28
2022-08-28T03:12:51.743Z,102015.16
2022-08-28T03:15:55.869Z,102061.13
2022-08-28T03:18:58.800Z,102021.91
2022-08-28T03:22:01.537Z,102069.22
2022-08-28T03:25:03.843Z,102038.28
2022-08-28T03:28:07.998Z,102066.06
2022-08-28T03:31:11.734Z,102021.69
2022-08-28T03:34:14.569Z,102035.69
2022-08-28T03:37:17.332Z,102028.47
2022-08-28T03:40:21.447Z,102035.09
2022-08-28T03:43:25.663Z,102035.09
2022-08-28T03:46:29.357Z,102048.44
2022-08-28T03:49:32.185Z,102044.81
2022-08-28T03:52:34.853Z,102078.91
2022-08-28T03:55:37.627Z,102023.56
2022-08-28T03:58:41.994Z,102038.97
2022-08-28T04:01:44.756Z,102040.13
2022-08-28T04:04:47.566Z,102065.81
2022-08-28T04:07:51.921Z,102013.75
2022-08-28T04:10:55.184Z,102091.75
2022-08-28T04:13:59.308Z,102068.28
2022-08-28T04:17:02.099Z,102077.13
2022-08-28T04:20:05.631Z,102084.50
2022-08-28T04:23:09.982Z,102064.91
2022-08-28T04:26:13.545Z,102087.31
2022-08-28T04:29:17.719Z,102014.66
2022-08-28T04:32:20.456Z,102089.41
2022-08-28T04:35:23.217Z,102001.25
2022-08-28T04:38:25.927Z,102088.81
2022-08-28T04:41:29.017Z,102028.69
2022-08-28T04:44:33.233Z,102069.09
2022-08-28T04:47:36.927Z,102054.38
2022-08-28T04:50:40.953Z,102026.00
2022-08-28T04:53:43.704Z,102038.38
2022-08-28T04:56:48.826Z,102078.91
2022-08-28T04:59:52.955Z,102031.03
2022-08-28T05:02:55.711Z,102105.06
2022-08-28T05:05:58.423Z,102015.16
2022-08-28T05:09:02.850Z,102019.59
2022-08-28T05:12:06.501Z,102113.69
2022-08-28T05:15:12.168Z,102109.72
2022-08-28T05:18:14.994Z,102116.75
2022-08-28T05:21:20.321Z,102083.69
2022-08-28T05:24:23.047Z,102123.78
2022-08-28T05:27:25.715Z,102087.75
2022-08-28T05:30:29.752Z,102110.56
2022-08-28T05:33:32.397Z,102118.72
2022-08-28T05:36:35.901Z,102113.69
2022-08-28T05:39:38.514Z,102114.84
2022-08-28T05:42:41.372Z,102128.66
2022-08-28T05:45:45.533Z,102084.00
2022-08-28T05:48:49.374Z,102129.03
2022-08-28T05:51:52.416Z,102089.88
2022-08-28T05:54:55.100Z,102121.34
2022-08-28T05:58:18.596Z,102057.66
2022-08-28T06:01:24.188Z,102068.94
2022-08-28T06:04:28.032Z,102114.78
2022-08-28T06:07:30.665Z,102095.16
2022-08-28T06:10:33.276Z,102072.13
2022-08-28T06:13:37.497Z,102136.81
2022-08-28T06:16:44.598Z,102133.41
2022-08-28T06:19:47.388Z,102143.06
2022-08-28T06:22:51.469Z,102130.97
2022-08-28T06:25:54.108Z,102141.56
2022-08-28T06:29:00.724Z,102150.22
2022-08-28T06:32:05.513Z,102145.41
2022-08-28T06:35:08.834Z,102114.53
2022-08-28T06:38:13.506Z,102132.44
2022-08-28T06:41:16.540Z,102152.69
2022-08-28T06:44:20.777Z,102129.38
2022-08-28T06:47:24.849Z,102152.84
2022-08-28T06:50:29.615Z,102131.19
2022-08-28T06:53:32.340Z,102140.16
2022-08-28T06:56:35.946Z,102164.03
2022-08-28T06:59:38.597Z,102155.13
2022-08-28T07:02:43.366Z,102159.56
2022-08-28T07:05:46.468Z,102158.47
2022-08-28T07:08:49.459Z,102160.19
2022-08-28T07:11:52.055Z,102123.69
2022-08-28T07:14:54.708Z,102168.59
2022-08-28T07:17:58.710Z,102157.06
2022-08-28T07:21:01.705Z,102120.44
2022-08-28T07:24:05.091Z,102150.03
2022-08-28T07:27:08.924Z,102147.53
2022-08-28T07:30:13.132Z,102180.38
2022-08-28T07:33:17.116Z,102187.34
2022-08-28T07:36:29.168Z,102181.28
2022-08-28T07:39:32.125Z,102186.34
2022-08-28T07:42:52.119Z,102193.88
2022-08-28T07:45:58.996Z,102199.47
2022-08-28T07:49:03.668Z,102170.09
2022-08-28T07:52:06.625Z,102163.22
2022-08-28T07:55:09.940Z,102154.19
2022-08-28T07:58:14.081Z,102195.47
2022-08-28T08:01:17.982Z,102183.09
2022-08-28T08:04:25.825Z,102200.31
2022-08-28T08:07:28.762Z,102205.44
2022-08-28T08:10:34.325Z,102172.03
2022-08-28T08:13:38.028Z,102163.84
2022-08-28T08:16:42.050Z,102175.25
2022-08-28T08:19:46.044Z,102149.06
2022-08-28T08:22:48.623Z,102150.16
2022-08-28T08:25:58.095Z,102181.72
2022-08-28T08:29:00.705Z,102214.94
2022-08-28T08:32:07.015Z,102189.91
2022-08-28T08:35:12.859Z,102216.38
2022-08-28T08:38:15.570Z,102165.72
2022-08-28T08:41:21.297Z,102207.97
2022-08-28T08:44:33.812Z,102190.91
2022-08-28T08:47:37.859Z,102185.44
2022-08-28T08:50:42.116Z,102201.78
2022-08-28T08:53:46.031Z,102189.38
2022-08-28T08:56:48.670Z,102185.84
2022-08-28T08:59:51.396Z,102208.03
2022-08-28T09:02:57.449Z,102216.13
2022-08-28T09:06:03.049Z,102141.44
2022-08-28T09:09:07.986Z,102176.31
2022-08-28T09:12:13.386Z,102184.53
2022-08-28T09:15:18.282Z,102210.22
2022-08-28T09:18:22.104Z,102178.59
2022-08-28T09:21:29.462Z,102160.78
2022-08-28T09:24:33.203Z,102206.69
2022-08-28T09:27:39.505Z,102188.06
2022-08-28T09:30:42.851Z,102190.81
2022-08-28T09:33:48.155Z,102206.34
2022-08-28T09:36:52.264Z,102208.66
2022-08-28T09:40:13.689Z,102210.69
2022-08-28T09:43:27.977Z,102157.13
2022-08-28T09:46:31.329Z,102164.75
2022-08-28T09:49:33.976Z,102198.84
2022-08-28T09:52:37.892Z,102201.91
2022-08-28T09:55:44.491Z,102201.25
2022-08-28T09:58:48.148Z,102201.91
2022-08-28T10:01:55.974Z,102186.06
2022-08-28T10:05:01.459Z,102195.41
2022-08-28T10:08:08.406Z,102170.28
2022-08-28T10:11:12.161Z,102198.47
2022-08-28T10:14:23.051Z,102164.34
2022-08-28T10:17:32.940Z,102154.75
2022-08-28T10:20:41.116Z,102179.25
2022-08-28T10:24:03.610Z,102180.06
2022-08-28T10:27:10.526Z,102195.41
2022-08-28T10:30:15.827Z,102201.16
2022-08-28T10:33:31.450Z,102170.78
2022-08-28T10:36:35.275Z,102205.31
2022-08-28T10:39:47.220Z,102184.16
2022-08-28T10:42:52.068Z,102149.06
2022-08-28T10:45:54.911Z,102199.34
2022-08-28T10:49:00.123Z,102196.41
2022-08-28T10:52:04.722Z,102168.47
2022-08-28T10:55:12.483Z,102211.66
2022-08-28T10:58:24.461Z,102216.59
2022-08-28T11:01:29.347Z,102208.03
2022-08-28T11:04:32.202Z,102203.19
2022-08-28T11:07:37.113Z,102219.94
2022-08-28T11:10:48.420Z,102197.19
2022-08-28T11:13:55.910Z,102168.75
2022-08-28T11:17:01.352Z,102187.41
2022-08-28T11:20:13.716Z,102211.88
2022-08-28T11:23:18.508Z,102188.34
2022-08-28T11:26:29.998Z,102216.31
2022-08-28T11:29:57.803Z,102210.22
2022-08-28T11:33:03.954Z,102210.25
2022-08-28T11:36:09.943Z,102207.47
2022-08-28T11:39:22.006Z,102214.78
2022-08-28T11:42:40.824Z,102196.13
2022-08-28T11:46:24.103Z,102205.88
2022-08-28T11:49:39.329Z,102194.09
2022-08-28T11:53:20.248Z,102207.88
2022-08-28T11:56:47.148Z,102194.84
2022-08-28T12:00:09.125Z,102217.56
2022-08-28T12:03:13.264Z,102203.81
2022-08-28T12:06:15.964Z,102149.38
2022-08-28T12:09:42.950Z,102218.31
2022-08-28T12:12:53.416Z,102185.06
2022-08-28T12:16:05.233Z,102207.88
2022-08-28T12:19:07.892Z,102224.84
2022-08-28T12:22:10.924Z,102207.84
2022-08-28T12:25:20.614Z,102159.16
2022-08-28T12:28:31.653Z,102207.03
2022-08-28T12:32:12.568Z,102209.44
2022-08-28T12:35:19.024Z,102181.78
2022-08-28T12:38:22.580Z,102206.09
2022-08-28T12:41:25.284Z,102205.34
2022-08-28T12:44:30.061Z,102215.13
2022-08-28T12:47:34.442Z,102194.00
2022-08-28T12:50:38.407Z,102189.84
2022-08-28T12:53:42.376Z,102213.69
2022-08-28T12:56:44.967Z,102209.22
2022-08-28T12:59:48.049Z,102192.38
2022-08-28T13:02:53.123Z,102206.25
2022-08-28T13:06:01.753Z,102195.66
2022-08-28T13:09:05.662Z,102184.31
2022-08-28T13:12:08.319Z,102199.72
2022-08-28T13:15:11.366Z,102198.03
2022-08-28T13:18:40.187Z,102189.38
2022-08-28T13:21:52.424Z,102177.59
2022-08-28T13:24:59.237Z,102201.31
2022-08-28T13:28:02.960Z,102207.84
2022-08-28T13:31:05.583Z,102180.25
2022-08-28T13:34:12.107Z,102202.19
2022-08-28T13:37:41.430Z,102199.78
2022-08-28T13:41:02.886Z,102178.22
2022-08-28T13:44:05.577Z,102198.09
2022-08-28T13:47:08.140Z,102201.34
2022-08-28T13:50:12.200Z,102125.91
2022-08-28T13:53:15.062Z,102174.56
2022-08-28T13:56:17.920Z,102191.63
2022-08-28T13:59:20.841Z,102182.69
2022-08-28T14:02:41.125Z,102144.50
2022-08-28T14:05:45.079Z,102170.44
2022-08-28T14:08:47.628Z,102136.03
2022-08-28T14:11:50.621Z,102182.28
2022-08-28T14:14:53.592Z,102178.66
2022-08-28T14:17:56.443Z,102135.25
2022-08-28T14:21:00.346Z,102132.38
2022-08-28T14:24:03.279Z,102129.16
2022-08-28T14:27:05.944Z,102159.16
2022-08-28T14:30:09.438Z,102178.25
2022-08-28T14:33:15.312Z,102127.53
2022-08-28T14:36:20.908Z,102180.25
2022-08-28T14:39:23.831Z,102180.59
2022-08-28T14:42:27.059Z,102186.56
2022-08-28T14:45:29.714Z,102122.91
2022-08-28T14:48:32.542Z,102171.94
2022-08-28T14:51:37.053Z,102124.47
2022-08-28T14:54:40.200Z,102138.81
2022-08-28T14:57:42.739Z,102159.19
2022-08-28T15:00:51.419Z,102190.41
2022-08-28T15:03:54.102Z,102178.59
2022-08-28T15:11:39.393Z,102172.91
2022-08-28T15:14:42.534Z,102140.47
2022-08-28T15:17:57.664Z,102168.09
2022-08-28T15:21:00.330Z,102150.25
2022-08-28T15:24:03.796Z,102175.78
2022-08-28T15:27:07.718Z,102173.75
2022-08-28T15:30:11.475Z,102155.06
2022-08-28T15:33:14.352Z,102161.56
2022-08-28T15:36:17.417Z,102160.78
2022-08-28T15:39:39.439Z,102157.50
2022-08-28T15:42:45.359Z,102156.19
2022-08-28T15:45:47.984Z,102154.16
2022-08-28T15:48:51.039Z,102161.09
2022-08-28T15:51:57.189Z,102137.09
2022-08-28T15:55:01.877Z,102142.03
2022-08-28T15:58:13.601Z,102162.69
2022-08-28T16:01:16.990Z,102148.06
2022-08-28T16:04:20.074Z,102156.59
2022-08-28T16:07:22.979Z,102166.75
2022-08-28T16:10:26.789Z,102159.91
2022-08-28T16:13:30.756Z,102164.81
2022-08-28T16:16:33.401Z,102163.59
2022-08-28T16:19:36.356Z,102168.91
2022-08-28T16:22:38.922Z,102174.59
2022-08-28T16:25:41.931Z,102166.47
2022-08-28T16:28:45.887Z,102173.78
2022-08-28T16:31:48.641Z,102175.41
2022-08-28T16:34:52.103Z,102178.63
2022-08-28T16:37:54.735Z,102178.66
2022-08-28T16:40:57.401Z,102175.81
2022-08-28T16:44:01.314Z,102178.63
2022-08-28T16:47:03.932Z,102185.94
2022-08-28T16:50:10.128Z,102151.06
2022-08-28T16:53:12.940Z,102105.59
2022-08-28T16:56:17.401Z,102179.44
2022-08-28T16:59:23.392Z,102179.44
2022-08-28T17:02:26.873Z,102169.69
2022-08-28T17:05:29.831Z,102177.38
2022-08-28T17:08:32.395Z,102172.09
2022-08-28T17:11:35.556Z,102174.44
2022-08-28T17:14:39.662Z,102174.78
2022-08-28T17:17:42.526Z,102166.19
2022-08-28T17:21:02.964Z,102175.13
2022-08-28T17:24:06.711Z,102144.28
2022-08-28T17:27:09.317Z,102172.59
2022-08-28T17:30:15.521Z,102157.94
2022-08-28T17:33:18.115Z,102166.38
2022-08-28T17:36:32.441Z,102126.50
2022-08-28T17:39:36.473Z,102152.75
2022-08-28T17:42:39.102Z,102168.22
2022-08-28T17:45:44.511Z,102173.13
2022-08-28T17:48:55.645Z,102167.34
2022-08-28T17:51:58.887Z,102157.66
2022-08-28T17:55:01.598Z,102162.81
2022-08-28T17:58:04.359Z,102158.69
2022-08-28T18:01:09.369Z,102163.50
2022-08-28T18:04:12.274Z,102164.69
2022-08-28T18:07:14.888Z,102164.69
2022-08-28T18:10:17.539Z,102161.03
2022-08-28T18:13:20.219Z,102154.88
2022-08-28T18:16:30.365Z,102172.63
2022-08-28T18:19:33.967Z,102174.94
2022-08-28T18:22:36.801Z,102161.44
2022-08-28T18:25:42.459Z,102117.03
2022-08-28T18:28:49.893Z,102172.31
2022-08-28T18:31:54.140Z,102154.78
2022-08-28T18:34:56.679Z,102181.66
2022-08-28T18:37:59.814Z,102184.50
2022-08-28T18:41:02.444Z,102126.19
2022-08-28T18:44:05.130Z,102188.00
2022-08-28T18:47:10.175Z,102175.34
2022-08-28T18:50:12.751Z,102108.97
2022-08-28T18:53:15.641Z,102142.63
2022-08-28T18:56:18.564Z,102157.28
2022-08-28T18:59:22.848Z,102187.34
2022-08-28T19:02:26.920Z,102185.69
2022-08-28T19:05:29.724Z,102174.16
2022-08-28T19:08:32.765Z,102194.06
2022-08-28T19:11:36.153Z,102200.44
2022-08-28T19:14:38.722Z,102199.19
2022-08-28T19:17:42.868Z,102214.44
2022-08-28T19:20:45.456Z,102220.44
2022-08-28T19:23:56.025Z,102179.38
2022-08-28T19:26:58.925Z,102217.59
2022-08-28T19:30:01.532Z,102214.34
2022-08-28T19:33:05.673Z,102216.31
2022-08-28T19:36:08.712Z,102219.13
2022-08-28T19:39:11.283Z,102225.53
2022-08-28T19:42:13.875Z,102208.03
2022-08-28T19:45:17.735Z,102227.50
2022-08-28T19:48:21.694Z,102229.47
2022-08-28T19:51:24.393Z,102225.00
2022-08-28T19:54:26.976Z,102235.00
2022-08-28T19:57:29.700Z,102208.84
2022-08-28T20:00:32.921Z,102235.94
2022-08-28T20:03:36.852Z,102227.19
2022-08-28T20:06:39.480Z,102211.44
2022-08-28T20:09:42.080Z,102187.22
2022-08-28T20:12:48.500Z,102207.16
2022-08-28T20:15:52.921Z,102250.28
2022-08-28T20:18:57.737Z,102245.81
2022-08-28T20:22:00.465Z,102229.47
2022-08-28T20:25:03.135Z,102217.50
2022-08-28T20:28:05.844Z,102228.66
2022-08-28T20:31:09.236Z,102248.97
2022-08-28T20:34:13.355Z,102238.94
2022-08-28T20:37:16.566Z,102258.63
2022-08-28T20:40:21.741Z,102259.69
2022-08-28T20:43:24.759Z,102229.13
2022-08-28T20:46:27.539Z,102263.78
2022-08-28T20:49:31.652Z,102271.13
2022-08-28T20:52:34.301Z,102277.81
2022-08-28T20:55:36.977Z,102271.22
2022-08-28T20:58:39.561Z,102270.69
2022-08-28T21:01:42.318Z,102268.41
2022-08-28T21:04:46.560Z,102267.44
2022-08-28T21:07:49.325Z,102269.66
2022-08-28T21:10:52.870Z,102263.63
2022-08-28T21:13:55.426Z,102276.91
2022-08-28T21:16:58.435Z,102236.44
2022-08-28T21:20:04.239Z,102244.88
2022-08-28T21:23:07.551Z,102259.84
2022-08-28T21:26:10.342Z,102267.69
2022-08-28T21:29:13.869Z,102272.50
2022-08-28T21:32:16.664Z,102264.22
2022-08-28T21:35:20.779Z,102230.81
2022-08-28T21:38:23.390Z,102251.22
2022-08-28T21:41:25.963Z,102279.56
2022-08-28T21:44:29.007Z,102288.25
2022-08-28T21:47:31.782Z,102253.13
2022-08-28T21:50:36.216Z,102284.81
2022-08-28T21:53:38.972Z,102281.06
2022-08-28T21:56:41.621Z,102211.06
2022-08-28T21:59:44.379Z,102245.47
2022-08-28T22:02:47.200Z,102280.41
2022-08-28T22:05:51.576Z,102251.09
2022-08-28T22:08:54.487Z,102287.50
2022-08-28T22:11:58.513Z,102291.97
2022-08-28T22:15:01.192Z,102252.31
2022-08-28T22:18:03.917Z,102257.34
2022-08-28T22:21:26.820Z,102290.13
2022-08-28T22:24:29.488Z,102253.69
2022-08-28T22:27:32.992Z,102293.91
2022-08-28T22:30:35.662Z,102293.69
2022-08-28T22:33:38.375Z,102282.63
2022-08-28T22:36:42.510Z,102288.91
2022-08-28T22:39:45.183Z,102288.06
2022-08-28T22:42:47.864Z,102284.81
2022-08-28T22:45:50.625Z,102285.53
2022-08-28T22:48:53.312Z,102222.25
2022-08-28T22:51:57.483Z,102286.25
2022-08-28T22:55:00.153Z,102291.06
2022-08-28T22:58:02.860Z,102271.31
2022-08-28T23:01:07.535Z,102220.38
2022-08-28T23:04:10.437Z,102278.78
2022-08-28T23:07:14.540Z,102274.03
2022-08-28T23:10:17.745Z,102254.78
2022-08-28T23:13:20.715Z,102287.69
2022-08-28T23:16:24.650Z,102200.28
2022-08-28T23:19:27.983Z,102289.69
2022-08-28T23:22:34.324Z,102209.16
2022-08-28T23:25:37.022Z,102283.88
2022-08-28T23:28:39.693Z,102290.44
2022-08-28T23:31:42.410Z,102255.56
2022-08-28T23:34:45.405Z,102293.69
2022-08-28T23:37:51.975Z,102273.59
2022-08-28T23:40:54.837Z,102275.72
2022-08-28T23:43:57.750Z,102240.66
2022-08-28T23:47:00.733Z,102251.91
2022-08-28T23:50:05.825Z,102284.63
2022-08-28T23:53:10.018Z,102184.34
2022-08-28T23:56:12.824Z,102272.00
2022-08-28T23:59:15.733Z,102196.28
